Time;durP1;ratioP1;P1;durP2;ratioP2;P2;SDS_P1;SDS_P2;PMS_P1;PMS_P2;Temp;Humidity;BMP_temperature;BMP_pressure;BME280_temperature;BME280_humidity;BME280_pressure;Samples;Min_cycle;Max_cycle;Signal;HPM_P1;HPM_P2
2022/08/23 00:01:39;;;;;;;;;;;20.50;71.50;;;;;;5042227;27;87035;-41
2022/08/23 00:04:09;;;;;;;;;;;20.50;71.40;;;;;;5043416;28;87463;-41
2022/08/23 00:06:34;;;;;;;;;;;20.50;71.70;;;;;;5042161;28;90449;-41
2022/08/23 00:09:00;;;;;;;;;;;20.40;71.30;;;;;;5046066;27;87090;-41
2022/08/23 00:11:25;;;;;;;;;;;20.40;71.30;;;;;;5043350;27;87267;-41
2022/08/23 00:13:51;;;;;;;;;;;20.40;71.30;;;;;;5043259;28;86884;-41
2022/08/23 00:16:16;;;;;;;;;;;20.40;71.30;;;;;;5043189;28;87807;-41
2022/08/23 00:18:42;;;;;;;;;;;20.40;71.40;;;;;;5041905;28;89417;-41
2022/08/23 00:21:08;;;;;;;;;;;20.40;71.30;;;;;;5042545;27;87129;-41
2022/08/23 00:23:33;;;;;;;;;;;20.40;71.30;;;;;;5043062;28;87480;-41
2022/08/23 00:26:02;;;;;;;;;;;20.40;71.30;;;;;;5042621;28;88171;-41
2022/08/23 00:28:28;;;;;;;;;;;20.40;71.30;;;;;;5045554;27;86840;-41
2022/08/23 00:30:54;;;;;;;;;;;20.40;71.30;;;;;;5042300;27;89267;-41
2022/08/23 00:33:20;;;;;;;;;;;20.30;71.20;;;;;;5043050;27;86974;-41
2022/08/23 00:35:45;;;;;;;;;;;20.30;71.40;;;;;;5043369;27;86579;-41
2022/08/23 00:38:11;;;;;;;;;;;20.30;71.30;;;;;;5042521;28;88009;-41
2022/08/23 00:40:36;;;;;;;;;;;20.30;71.30;;;;;;5042751;28;87053;-41
2022/08/23 00:48:38;;;;;;;;;;;20.30;71.30;;;;;;5042755;28;86915;-41
2022/08/23 00:51:09;;;;;;;;;;;20.20;71.30;;;;;;5045305;28;87487;-41
2022/08/23 00:53:37;;;;;;;;;;;20.20;71.40;;;;;;5042591;28;87623;-41
2022/08/23 00:56:05;;;;;;;;;;;20.20;71.40;;;;;;5042132;28;87533;-41
2022/08/23 00:58:31;;;;;;;;;;;20.20;71.20;;;;;;5042084;27;88041;-41
2022/08/23 01:00:58;;;;;;;;;;;20.30;71.20;;;;;;5042944;28;86368;-41
2022/08/23 01:03:25;;;;;;;;;;;20.20;71.20;;;;;;5042589;27;86999;-41
2022/08/23 01:05:53;;;;;;;;;;;20.20;71.20;;;;;;5042133;28;88114;-41
2022/08/23 01:08:22;;;;;;;;;;;20.20;71.10;;;;;;5041871;28;88065;-41
2022/08/23 01:10:52;;;;;;;;;;;20.20;71.20;;;;;;5042218;27;89606;-41
2022/08/23 01:13:24;;;;;;;;;;;20.20;71.20;;;;;;5046853;27;88180;-41
2022/08/23 01:15:54;;;;;;;;;;;20.20;71.20;;;;;;5045864;27;89094;-41
2022/08/23 01:18:22;;;;;;;;;;;20.20;71.10;;;;;;5045479;27;88054;-41
2022/08/23 01:20:51;;;;;;;;;;;20.20;71.00;;;;;;5045600;27;87105;-41
2022/08/23 01:23:16;;;;;;;;;;;20.20;71.10;;;;;;5045348;28;87446;-41
2022/08/23 01:25:42;;;;;;;;;;;20.20;71.80;;;;;;5046018;28;87412;-41
2022/08/23 01:28:07;;;;;;;;;;;20.20;71.10;;;;;;5045583;27;86878;-41
2022/08/23 01:30:34;;;;;;;;;;;20.20;71.00;;;;;;5045848;27;87322;-41
2022/08/23 01:33:02;;;;;;;;;;;20.20;71.00;;;;;;5044325;27;90090;-41
2022/08/23 01:35:36;;;;;;;;;;;20.20;71.10;;;;;;5048221;27;87081;-41
2022/08/23 01:38:01;;;;;;;;;;;20.10;70.90;;;;;;5045130;27;89415;-41
2022/08/23 01:40:27;;;;;;;;;;;20.10;71.10;;;;;;5045782;27;86977;-41
2022/08/23 01:42:53;;;;;;;;;;;20.10;71.00;;;;;;5045398;27;88758;-41
2022/08/23 01:45:19;;;;;;;;;;;20.10;71.00;;;;;;5044832;27;89343;-41
2022/08/23 01:47:45;;;;;;;;;;;20.10;71.00;;;;;;5045296;27;87155;-42
2022/08/23 01:50:11;;;;;;;;;;;20.10;71.00;;;;;;5045702;28;87408;-41
2022/08/23 01:52:37;;;;;;;;;;;20.10;71.00;;;;;;5044965;27;87970;-41
2022/08/23 01:55:03;;;;;;;;;;;20.10;70.80;;;;;;5045429;28;87022;-41
2022/08/23 01:57:29;;;;;;;;;;;20.10;70.90;;;;;;5047043;27;88587;-41
2022/08/23 01:59:56;;;;;;;;;;;20.10;71.00;;;;;;5045524;28;87091;-41
2022/08/23 02:02:21;;;;;;;;;;;20.10;70.90;;;;;;5045088;28;87469;-41
2022/08/23 02:04:47;;;;;;;;;;;20.10;70.80;;;;;;5044776;28;88191;-41
2022/08/23 02:07:12;;;;;;;;;;;20.10;70.80;;;;;;5044984;28;87136;-41
2022/08/23 02:09:38;;;;;;;;;;;20.10;70.70;;;;;;5045256;28;87397;-41
2022/08/23 02:12:04;;;;;;;;;;;20.00;70.60;;;;;;5044721;28;88338;-41
2022/08/23 02:14:29;;;;;;;;;;;20.00;70.70;;;;;;5045524;27;86340;-41
2022/08/23 02:16:57;;;;;;;;;;;20.00;70.80;;;;;;5045252;28;86964;-41
2022/08/23 02:19:23;;;;;;;;;;;20.00;70.80;;;;;;5047139;27;89237;-41
2022/08/23 02:21:49;;;;;;;;;;;20.00;70.90;;;;;;5044084;27;87924;-41
2022/08/23 02:24:19;;;;;;;;;;;20.00;70.70;;;;;;5043557;27;89819;-41
2022/08/23 02:26:46;;;;;;;;;;;20.00;70.80;;;;;;5044900;28;86893;-41
2022/08/23 02:29:13;;;;;;;;;;;20.00;70.80;;;;;;5044811;27;88910;-41
2022/08/23 02:31:38;;;;;;;;;;;20.00;70.80;;;;;;5044100;27;88688;-41
2022/08/23 02:34:04;;;;;;;;;;;19.90;70.70;;;;;;5044670;28;87177;-41
2022/08/23 02:36:31;;;;;;;;;;;19.90;70.80;;;;;;5044820;27;87414;-41
2022/08/23 02:38:56;;;;;;;;;;;19.90;70.70;;;;;;5048051;28;88496;-41
2022/08/23 02:41:22;;;;;;;;;;;20.00;70.70;;;;;;5044427;27;88153;-41
2022/08/23 02:43:52;;;;;;;;;;;19.90;70.70;;;;;;5044313;28;87879;-41
2022/08/23 02:46:17;;;;;;;;;;;19.90;70.70;;;;;;5043695;27;88073;-41
2022/08/23 02:48:43;;;;;;;;;;;19.90;70.60;;;;;;5044478;28;88314;-41
2022/08/23 02:51:09;;;;;;;;;;;19.90;70.70;;;;;;5044323;27;87965;-41
2022/08/23 02:53:35;;;;;;;;;;;19.90;70.60;;;;;;5044494;28;87000;-41
2022/08/23 02:56:00;;;;;;;;;;;19.90;70.60;;;;;;5044307;27;88279;-41
2022/08/23 02:58:26;;;;;;;;;;;19.80;70.70;;;;;;5044176;27;87906;-41
2022/08/23 03:00:52;;;;;;;;;;;19.80;70.70;;;;;;5047486;27;87010;-41
2022/08/23 03:03:18;;;;;;;;;;;19.80;70.60;;;;;;5043974;27;89053;-41
2022/08/23 03:05:44;;;;;;;;;;;19.80;70.50;;;;;;5044188;28;87055;-41
2022/08/23 03:08:09;;;;;;;;;;;19.80;70.60;;;;;;5044273;28;87567;-41
2022/08/23 03:10:35;;;;;;;;;;;19.80;70.60;;;;;;5043178;27;88992;-41
2022/08/23 03:13:01;;;;;;;;;;;19.80;70.70;;;;;;5043998;27;86947;-41
2022/08/23 03:15:27;;;;;;;;;;;19.80;70.60;;;;;;5044202;28;87358;-41
2022/08/23 03:17:52;;;;;;;;;;;19.80;70.60;;;;;;5043689;28;88466;-41
2022/08/23 03:20:18;;;;;;;;;;;19.80;70.60;;;;;;5044091;28;87120;-41
2022/08/23 03:22:43;;;;;;;;;;;19.70;71.20;;;;;;5046433;28;87172;-41
2022/08/23 03:25:09;;;;;;;;;;;19.70;70.50;;;;;;5044040;27;87955;-41
2022/08/23 03:27:35;;;;;;;;;;;19.70;70.50;;;;;;5044432;28;87471;-41
2022/08/23 03:30:00;;;;;;;;;;;19.70;70.50;;;;;;5043565;27;87937;-41
2022/08/23 03:32:26;;;;;;;;;;;19.70;70.50;;;;;;5043719;28;86997;-41
2022/08/23 03:34:52;;;;;;;;;;;19.70;70.40;;;;;;5043273;27;88231;-41
2022/08/23 03:37:17;;;;;;;;;;;19.70;70.50;;;;;;5043315;27;88163;-41
2022/08/23 03:39:43;;;;;;;;;;;19.70;70.60;;;;;;5043737;28;87001;-41
2022/08/23 03:42:08;;;;;;;;;;;19.70;70.60;;;;;;5043776;28;87084;-41
2022/08/23 03:44:34;;;;;;;;;;;19.70;70.50;;;;;;5046432;28;88094;-41
2022/08/23 03:46:59;;;;;;;;;;;19.70;70.50;;;;;;5043522;27;87397;-41
2022/08/23 03:49:25;;;;;;;;;;;19.70;70.50;;;;;;5043175;28;88183;-41
2022/08/23 03:51:51;;;;;;;;;;;19.60;70.40;;;;;;5044182;27;86240;-41
2022/08/23 03:54:17;;;;;;;;;;;19.70;70.50;;;;;;5043609;27;87057;-41
2022/08/23 03:56:50;;;;;;;;;;;19.60;70.50;;;;;;5042519;27;89444;-41
2022/08/23 03:59:16;;;;;;;;;;;19.60;70.50;;;;;;5042619;28;88024;-41
2022/08/23 04:01:42;;;;;;;;;;;19.60;70.50;;;;;;5043349;28;88433;-41
2022/08/23 04:04:08;;;;;;;;;;;19.60;71.10;;;;;;5042689;27;89319;-41
2022/08/23 04:06:34;;;;;;;;;;;19.60;70.60;;;;;;5046031;27;87102;-41
2022/08/23 04:08:59;;;;;;;;;;;19.60;70.60;;;;;;5042965;27;87059;-41
2022/08/23 04:11:26;;;;;;;;;;;19.60;70.60;;;;;;5043147;28;87048;-41
2022/08/23 04:13:52;;;;;;;;;;;19.60;70.60;;;;;;5043075;27;88778;-41
2022/08/23 04:16:20;;;;;;;;;;;19.60;70.50;;;;;;5043197;27;88954;-41
2022/08/23 04:18:46;;;;;;;;;;;19.60;70.50;;;;;;5042871;27;86990;-41
2022/08/23 04:21:16;;;;;;;;;;;19.60;70.60;;;;;;5042671;27;87418;-41
2022/08/23 04:23:42;;;;;;;;;;;19.50;70.80;;;;;;5041994;28;88914;-41
2022/08/23 04:26:08;;;;;;;;;;;19.50;70.80;;;;;;5043028;27;87059;-41
2022/08/23 04:28:33;;;;;;;;;;;19.50;70.70;;;;;;5045664;27;87257;-41
2022/08/23 04:31:00;;;;;;;;;;;19.50;70.70;;;;;;5042726;27;87119;-41
2022/08/23 04:33:26;;;;;;;;;;;19.50;70.70;;;;;;5043156;28;87503;-41
2022/08/23 04:35:52;;;;;;;;;;;19.50;70.70;;;;;;5042618;28;88115;-41
2022/08/23 04:38:17;;;;;;;;;;;19.50;70.70;;;;;;5042933;28;86981;-41
2022/08/23 04:43:27;;;;;;;;;;;19.50;70.80;;;;;;5042537;28;87241;-41
2022/08/23 04:45:52;;;;;;;;;;;19.50;70.80;;;;;;5042459;27;87211;-41
2022/08/23 04:48:18;;;;;;;;;;;19.50;70.70;;;;;;5044254;28;87895;-41
2022/08/23 04:50:44;;;;;;;;;;;19.50;71.20;;;;;;5042765;28;87097;-41
2022/08/23 04:53:10;;;;;;;;;;;19.40;70.90;;;;;;5042537;27;88050;-41
2022/08/23 04:55:36;;;;;;;;;;;19.40;70.80;;;;;;5042095;28;89551;-41
2022/08/23 04:58:02;;;;;;;;;;;19.40;70.70;;;;;;5042279;27;87107;-41
2022/08/23 05:00:28;;;;;;;;;;;19.40;70.80;;;;;;5042555;28;86975;-41
2022/08/23 05:02:53;;;;;;;;;;;19.40;70.80;;;;;;5042199;28;88243;-41
2022/08/23 05:05:19;;;;;;;;;;;19.40;70.70;;;;;;5043124;28;86321;-41
2022/08/23 05:07:45;;;;;;;;;;;19.40;70.70;;;;;;5042296;27;88083;-41
2022/08/23 05:10:12;;;;;;;;;;;19.50;70.70;;;;;;5045250;28;87883;-41
2022/08/23 05:12:38;;;;;;;;;;;19.40;70.50;;;;;;5041782;27;89450;-41
2022/08/23 05:15:04;;;;;;;;;;;19.40;70.60;;;;;;5041562;27;89351;-41
2022/08/23 05:17:30;;;;;;;;;;;19.40;70.70;;;;;;5042152;27;87121;-41
2022/08/23 05:19:55;;;;;;;;;;;19.40;70.60;;;;;;5042209;27;87857;-41
2022/08/23 05:22:21;;;;;;;;;;;19.40;70.40;;;;;;5041550;28;88187;-41
2022/08/23 05:24:46;;;;;;;;;;;19.40;70.50;;;;;;5042425;28;87167;-41
2022/08/23 05:27:12;;;;;;;;;;;19.40;70.60;;;;;;5042176;28;87454;-41
2022/08/23 05:29:37;;;;;;;;;;;19.40;70.50;;;;;;5042395;28;87543;-41
2022/08/23 05:32:03;;;;;;;;;;;19.40;70.50;;;;;;5045105;28;87052;-41
2022/08/23 05:34:29;;;;;;;;;;;19.40;70.60;;;;;;5041781;28;88018;-41
2022/08/23 05:36:54;;;;;;;;;;;19.40;70.50;;;;;;5041434;28;88057;-41
2022/08/23 05:39:20;;;;;;;;;;;19.40;70.40;;;;;;5042083;27;88226;-41
2022/08/23 05:41:45;;;;;;;;;;;19.50;70.40;;;;;;5041434;27;89290;-41
2022/08/23 05:44:11;;;;;;;;;;;19.40;70.20;;;;;;5042146;27;86868;-41
2022/08/23 05:46:37;;;;;;;;;;;19.40;70.20;;;;;;5041875;27;87678;-41
2022/08/23 05:49:03;;;;;;;;;;;19.40;70.10;;;;;;5041595;27;87975;-41
2022/08/23 05:51:30;;;;;;;;;;;19.40;70.30;;;;;;5041814;27;87165;-41
2022/08/23 05:53:57;;;;;;;;;;;19.40;70.70;;;;;;5045054;28;87532;-41
2022/08/23 05:56:22;;;;;;;;;;;19.40;70.60;;;;;;5041384;27;87178;-41
2022/08/23 05:58:49;;;;;;;;;;;19.30;70.60;;;;;;5041721;27;87418;-41
2022/08/23 06:01:15;;;;;;;;;;;19.30;70.70;;;;;;5044176;27;89275;-41
2022/08/23 06:03:41;;;;;;;;;;;19.30;70.80;;;;;;5045173;27;87082;-41
2022/08/23 06:06:07;;;;;;;;;;;19.30;70.70;;;;;;5044918;27;88806;-41
2022/08/23 06:08:33;;;;;;;;;;;19.30;70.90;;;;;;5044920;27;87952;-41
2022/08/23 06:11:00;;;;;;;;;;;19.30;70.70;;;;;;5045028;28;86964;-40
2022/08/23 06:13:25;;;;;;;;;;;19.40;70.80;;;;;;5044995;27;88708;-41
2022/08/23 06:15:51;;;;;;;;;;;19.40;70.80;;;;;;5047548;27;89423;-40
2022/08/23 06:18:16;;;;;;;;;;;19.40;70.70;;;;;;5045565;28;86696;-41
2022/08/23 06:20:42;;;;;;;;;;;19.40;70.80;;;;;;5044559;28;88100;-41
2022/08/23 06:23:07;;;;;;;;;;;19.40;70.70;;;;;;5044569;28;87077;-40
2022/08/23 06:25:36;;;;;;;;;;;19.40;70.70;;;;;;5044433;28;88004;-40
2022/08/23 06:28:02;;;;;;;;;;;19.40;70.50;;;;;;5044334;27;87997;-41
2022/08/23 06:30:28;;;;;;;;;;;19.40;70.70;;;;;;5044721;28;87140;-40
2022/08/23 06:32:53;;;;;;;;;;;19.40;70.30;;;;;;5044798;27;87621;-40
2022/08/23 06:35:19;;;;;;;;;;;19.40;70.30;;;;;;5044430;28;88095;-41
2022/08/23 06:37:44;;;;;;;;;;;19.40;70.50;;;;;;5047713;27;86972;-40
2022/08/23 06:40:09;;;;;;;;;;;19.50;70.50;;;;;;5044158;28;88028;-41
2022/08/23 06:42:35;;;;;;;;;;;19.50;70.40;;;;;;5045009;28;86318;-41
2022/08/23 06:45:01;;;;;;;;;;;19.50;70.60;;;;;;5044580;27;86943;-41
2022/08/23 06:47:26;;;;;;;;;;;19.50;70.60;;;;;;5044220;27;88117;-41
2022/08/23 06:49:53;;;;;;;;;;;19.50;70.70;;;;;;5043532;27;88074;-41
2022/08/23 06:52:18;;;;;;;;;;;19.50;70.80;;;;;;5044171;27;89563;-40
2022/08/23 06:54:46;;;;;;;;;;;19.50;70.90;;;;;;5044383;28;87128;-40
2022/08/23 06:57:12;;;;;;;;;;;19.50;70.80;;;;;;5046786;27;86964;-40
2022/08/23 06:59:37;;;;;;;;;;;19.50;71.40;;;;;;5043795;27;89369;-40
2022/08/23 07:02:05;;;;;;;;;;;19.50;70.90;;;;;;5044427;28;87045;-40
2022/08/23 07:04:32;;;;;;;;;;;19.50;70.80;;;;;;5044345;27;87359;-40
2022/08/23 07:07:00;;;;;;;;;;;19.50;71.00;;;;;;5044266;28;86899;-40
2022/08/23 07:09:26;;;;;;;;;;;19.50;71.10;;;;;;5044082;27;87012;-40
2022/08/23 07:11:51;;;;;;;;;;;19.50;71.00;;;;;;5043419;27;88907;-41
2022/08/23 07:14:18;;;;;;;;;;;19.50;71.10;;;;;;5043057;27;88923;-40
2022/08/23 07:16:46;;;;;;;;;;;19.50;71.10;;;;;;5044109;27;87179;-40
2022/08/23 07:19:12;;;;;;;;;;;19.40;71.60;;;;;;5046680;27;87418;-41
2022/08/23 07:21:38;;;;;;;;;;;19.40;71.30;;;;;;5043404;27;87097;-40
2022/08/23 07:24:04;;;;;;;;;;;19.50;71.20;;;;;;5044113;27;86996;-40
2022/08/23 07:26:29;;;;;;;;;;;19.50;71.20;;;;;;5043578;28;89158;-40
2022/08/23 07:28:56;;;;;;;;;;;19.50;71.50;;;;;;5043891;28;86934;-40
2022/08/23 07:31:25;;;;;;;;;;;19.50;71.40;;;;;;5043975;27;89020;-40
2022/08/23 07:33:52;;;;;;;;;;;19.50;71.40;;;;;;5043395;28;88095;-40
2022/08/23 07:36:18;;;;;;;;;;;19.40;71.30;;;;;;5043712;27;86830;-40
2022/08/23 07:38:44;;;;;;;;;;;19.40;71.70;;;;;;5043071;28;88916;-40
2022/08/23 07:41:10;;;;;;;;;;;19.50;71.40;;;;;;5045994;28;89389;-40
2022/08/23 07:43:37;;;;;;;;;;;19.40;71.60;;;;;;5043674;27;87322;-41
2022/08/23 07:46:02;;;;;;;;;;;19.40;71.50;;;;;;5043282;27;87863;-40
2022/08/23 07:48:28;;;;;;;;;;;19.40;71.60;;;;;;5043533;28;87084;-40
2022/08/23 07:50:56;;;;;;;;;;;19.40;71.80;;;;;;5043322;28;88783;-40
2022/08/23 07:53:21;;;;;;;;;;;19.40;72.00;;;;;;5043170;27;89492;-41
2022/08/23 07:55:47;;;;;;;;;;;19.40;72.00;;;;;;5043946;28;86343;-40
2022/08/23 07:58:12;;;;;;;;;;;19.40;71.90;;;;;;5043443;28;86917;-40
2022/08/23 08:00:38;;;;;;;;;;;19.40;72.00;;;;;;5043086;27;88017;-41
2022/08/23 08:03:03;;;;;;;;;;;19.40;71.90;;;;;;5045732;28;88041;-40
2022/08/23 08:05:32;;;;;;;;;;;19.40;72.30;;;;;;5042935;28;88234;-40
2022/08/23 08:07:57;;;;;;;;;;;19.40;72.40;;;;;;5043307;27;87059;-40
2022/08/23 08:10:23;;;;;;;;;;;19.40;72.20;;;;;;5043298;28;86992;-40
2022/08/23 08:12:49;;;;;;;;;;;19.40;72.10;;;;;;5042759;27;88318;-40
2022/08/23 08:15:15;;;;;;;;;;;19.40;72.40;;;;;;5043411;27;87092;-40
2022/08/23 08:17:41;;;;;;;;;;;19.40;72.20;;;;;;5043258;28;87451;-40
2022/08/23 08:20:07;;;;;;;;;;;19.40;73.00;;;;;;5043508;27;86474;-40
2022/08/23 08:22:32;;;;;;;;;;;19.40;72.30;;;;;;5041339;27;86986;-40
2022/08/23 08:24:58;;;;;;;;;;;19.40;72.40;;;;;;5046007;27;87370;-40
2022/08/23 08:27:24;;;;;;;;;;;19.40;73.10;;;;;;5041124;28;88821;-39
2022/08/23 08:29:49;;;;;;;;;;;19.40;73.80;;;;;;5043165;27;88473;-40
2022/08/23 08:32:15;;;;;;;;;;;19.40;74.40;;;;;;5042625;28;88187;-40
2022/08/23 08:34:41;;;;;;;;;;;19.40;73.50;;;;;;5043000;28;87109;-40
2022/08/23 08:37:06;;;;;;;;;;;19.50;73.90;;;;;;5043003;28;87429;-39
2022/08/23 08:39:32;;;;;;;;;;;19.60;73.00;;;;;;5042371;28;88221;-39
2022/08/23 08:42:07;;;;;;;;;;;19.60;72.90;;;;;;5042637;28;87156;-39
2022/08/23 08:44:45;;;;;;;;;;;19.60;72.50;;;;;;5045553;27;88664;-40
2022/08/23 08:47:22;;;;;;;;;;;19.60;72.70;;;;;;5042674;28;86945;-39
2022/08/23 08:49:50;;;;;;;;;;;19.60;72.50;;;;;;5042964;27;87390;-39
2022/08/23 08:52:32;;;;;;;;;;;19.60;72.40;;;;;;5041529;28;88966;-39
2022/08/23 08:55:27;;;;;;;;;;;19.70;72.40;;;;;;5042760;28;87352;-39
2022/08/23 08:57:53;;;;;;;;;;;19.70;72.10;;;;;;5032820;27;87356;-39
2022/08/23 09:00:24;;;;;;;;;;;19.70;72.20;;;;;;5042141;28;89627;-39
2022/08/23 09:02:50;;;;;;;;;;;19.80;72.20;;;;;;5042480;28;87120;-39
2022/08/23 09:05:25;;;;;;;;;;;19.70;73.50;;;;;;5042606;28;87440;-38
2022/08/23 09:08:00;;;;;;;;;;;19.90;75.20;;;;;;5044852;28;88166;-41
2022/08/23 09:10:32;;;;;;;;;;;20.00;77.20;;;;;;5043086;28;87338;-40
2022/08/23 09:13:02;;;;;;;;;;;20.20;79.80;;;;;;5042247;28;88040;-38
2022/08/23 09:15:33;;;;;;;;;;;20.30;76.60;;;;;;5042289;28;87182;-40
2022/08/23 09:18:09;;;;;;;;;;;20.30;75.00;;;;;;5041818;28;87783;-38
2022/08/23 09:20:36;;;;;;;;;;;20.40;74.50;;;;;;5041591;28;87751;-39
2022/08/23 09:23:11;;;;;;;;;;;20.30;75.80;;;;;;5041706;28;86994;-38
2022/08/23 09:25:36;;;;;;;;;;;20.40;76.60;;;;;;5041820;27;89034;-39
2022/08/23 09:28:02;;;;;;;;;;;20.40;76.10;;;;;;5041774;28;88068;-39
2022/08/23 09:31:04;;;;;;;;;;;20.40;75.40;;;;;;5045330;28;87069;-38
2022/08/23 09:33:35;;;;;;;;;;;20.50;76.20;;;;;;5000007;28;89658;-38
2022/08/23 09:36:19;;;;;;;;;;;20.60;76.40;;;;;;5039082;28;86422;-41
2022/08/23 09:38:53;;;;;;;;;;;20.60;76.10;;;;;;5045815;27;86970;-39
2022/08/23 09:41:21;;;;;;;;;;;20.60;74.50;;;;;;5045147;28;89225;-39
2022/08/23 09:43:47;;;;;;;;;;;20.60;76.20;;;;;;5044729;28;88012;-40
2022/08/23 09:46:23;;;;;;;;;;;20.70;75.10;;;;;;5045600;28;88339;-38
2022/08/23 09:48:49;;;;;;;;;;;20.70;73.60;;;;;;5045045;28;89691;-39
2022/08/23 09:51:24;;;;;;;;;;;20.70;73.80;;;;;;5045488;28;87075;-40
2022/08/23 09:54:03;;;;;;;;;;;20.70;76.40;;;;;;5048055;27;87365;-45
2022/08/23 09:56:36;;;;;;;;;;;20.80;74.50;;;;;;5045237;28;87013;-39
2022/08/23 09:59:01;;;;;;;;;;;20.80;75.00;;;;;;5045302;27;87361;-44
2022/08/23 10:01:29;;;;;;;;;;;20.90;74.50;;;;;;5045419;28;86847;-44
2022/08/23 10:04:11;;;;;;;;;;;21.00;74.70;;;;;;5045176;28;87043;-46
2022/08/23 10:06:38;;;;;;;;;;;21.00;76.10;;;;;;5045172;28;87430;-40
2022/08/23 10:09:05;;;;;;;;;;;21.00;76.50;;;;;;5043921;28;90513;-47
2022/08/23 10:11:50;;;;;;;;;;;21.00;76.50;;;;;;5043562;28;87016;-38
2022/08/23 10:14:17;;;;;;;;;;;21.10;76.10;;;;;;5044694;27;87297;-36
2022/08/23 10:16:57;;;;;;;;;;;21.00;74.00;;;;;;5047552;28;87601;-44
2022/08/23 10:19:29;;;;;;;;;;;21.00;74.60;;;;;;5045016;28;88055;-42
2022/08/23 10:22:14;;;;;;;;;;;21.50;66.40;;;;;;5044325;28;87931;-40
2022/08/23 10:24:42;;;;;;;;;;;21.40;65.10;;;;;;5044688;27;87063;-40
2022/08/23 10:29:35;;;;;;;;;;;21.30;67.60;;;;;;5045342;28;87550;-38
2022/08/23 10:30:11;;;;;;;;;;;21.20;69.40;;;;;;5044295;28;87589;-38
2022/08/23 10:32:45;;;;;;;;;;;21.20;70.50;;;;;;5044673;28;87173;-37
2022/08/23 10:35:25;;;;;;;;;;;21.40;70.90;;;;;;5044154;27;88183;-40
2022/08/23 10:38:03;;;;;;;;;;;21.20;69.80;;;;;;5042761;28;91064;-39
2022/08/23 10:40:31;;;;;;;;;;;21.20;71.20;;;;;;5047911;28;87008;-41
2022/08/23 10:43:03;;;;;;;;;;;21.30;72.00;;;;;;5044503;28;90262;-36
2022/08/23 10:45:30;;;;;;;;;;;21.30;73.00;;;;;;5043945;27;87164;-36
2022/08/23 10:47:57;;;;;;;;;;;21.30;72.40;;;;;;5044140;27;88822;-39
2022/08/23 10:50:24;;;;;;;;;;;21.40;71.40;;;;;;5044056;28;89459;-35
2022/08/23 10:52:52;;;;;;;;;;;21.40;72.00;;;;;;5044999;28;86256;-37
2022/08/23 10:55:34;;;;;;;;;;;21.50;70.70;;;;;;5038911;28;87022;-40
2022/08/23 10:58:00;;;;;;;;;;;21.60;71.50;;;;;;5023554;28;89342;-37
2022/08/23 11:00:28;;;;;;;;;;;21.60;70.30;;;;;;5026650;28;88249;-36
2022/08/23 11:02:56;;;;;;;;;;;21.60;69.80;;;;;;5023511;28;87870;-40
2022/08/23 11:05:25;;;;;;;;;;;21.50;68.80;;;;;;5024027;28;86978;-38
2022/08/23 11:07:59;;;;;;;;;;;21.60;69.20;;;;;;5023911;28;87069;-37
2022/08/23 11:10:31;;;;;;;;;;;21.50;69.30;;;;;;5023763;28;87327;-38
2022/08/23 11:12:56;;;;;;;;;;;21.50;67.40;;;;;;5024303;28;87369;-38
2022/08/23 11:15:27;;;;;;;;;;;21.50;69.30;;;;;;5023993;28;87409;-37
2022/08/23 11:17:57;;;;;;;;;;;21.60;70.00;;;;;;5024181;28;87058;-36
2022/08/23 11:20:41;;;;;;;;;;;21.60;69.20;;;;;;5023663;28;87530;-38
2022/08/23 11:23:09;;;;;;;;;;;21.70;67.40;;;;;;5026185;28;87424;-38
2022/08/23 11:25:35;;;;;;;;;;;21.60;68.40;;;;;;5022998;28;87744;-40
2022/08/23 11:28:19;;;;;;;;;;;21.70;69.60;;;;;;5023893;28;88469;-37
2022/08/23 11:30:48;;;;;;;;;;;21.80;68.30;;;;;;5023187;28;88070;-35
2022/08/23 11:33:16;;;;;;;;;;;21.90;67.90;;;;;;5023357;28;87050;-35
2022/08/23 11:35:48;;;;;;;;;;;21.90;68.60;;;;;;5023668;28;88892;-36
2022/08/23 11:38:15;;;;;;;;;;;21.90;67.80;;;;;;5023496;28;87608;-36
2022/08/23 11:41:01;;;;;;;;;;;21.80;67.90;;;;;;5023380;28;87210;-36
2022/08/23 11:43:32;;;;;;;;;;;21.90;68.10;;;;;;5023588;28;88867;-38
2022/08/23 11:46:12;;;;;;;;;;;21.80;68.30;;;;;;5025977;28;87875;-35
2022/08/23 11:48:40;;;;;;;;;;;21.90;69.50;;;;;;5023501;28;87472;-35
2022/08/23 11:51:08;;;;;;;;;;;21.90;68.60;;;;;;5022306;28;90822;-35
2022/08/23 11:53:46;;;;;;;;;;;22.00;68.90;;;;;;5023728;28;87093;-35
2022/08/23 11:56:20;;;;;;;;;;;21.90;68.40;;;;;;5023088;28;88820;-35
2022/08/23 11:58:54;;;;;;;;;;;21.90;68.40;;;;;;5022888;28;87111;-35
2022/08/23 12:01:39;;;;;;;;;;;21.90;68.50;;;;;;5023228;28;87056;-40
2022/08/23 12:04:12;;;;;;;;;;;22.00;69.70;;;;;;5022758;28;88874;-35
2022/08/23 12:06:49;;;;;;;;;;;22.10;70.20;;;;;;5022570;28;89538;-36
2022/08/23 12:09:24;;;;;;;;;;;22.10;69.00;;;;;;5026216;28;86360;-36
2022/08/23 12:11:56;;;;;;;;;;;22.00;68.90;;;;;;5022549;28;89143;-36
2022/08/23 12:14:30;;;;;;;;;;;21.90;68.80;;;;;;5022955;28;87106;-36
2022/08/23 12:16:57;;;;;;;;;;;22.00;69.70;;;;;;5022488;28;88350;-35
2022/08/23 12:19:32;;;;;;;;;;;22.00;69.80;;;;;;5022724;28;88098;-37
2022/08/23 12:22:04;;;;;;;;;;;22.20;69.80;;;;;;5022084;28;87145;-36
2022/08/23 12:24:40;;;;;;;;;;;22.20;69.80;;;;;;5023118;28;86971;-36
2022/08/23 12:27:07;;;;;;;;;;;22.10;69.40;;;;;;5022397;28;89200;-36
2022/08/23 12:29:37;;;;;;;;;;;22.10;69.00;;;;;;5022981;28;87098;-35
2022/08/23 12:32:10;;;;;;;;;;;22.10;69.00;;;;;;5025150;28;88749;-35
2022/08/23 12:34:45;;;;;;;;;;;22.00;68.90;;;;;;5023253;28;86266;-35
2022/08/23 12:37:20;;;;;;;;;;;22.00;69.00;;;;;;5022988;28;87137;-38
2022/08/23 12:39:48;;;;;;;;;;;22.00;68.30;;;;;;5022479;28;88126;-36
2022/08/23 12:42:16;;;;;;;;;;;22.10;69.00;;;;;;5021988;28;88428;-35
2022/08/23 12:44:43;;;;;;;;;;;22.10;68.30;;;;;;5022540;28;89921;-35
2022/08/23 12:47:14;;;;;;;;;;;22.10;67.90;;;;;;5022338;28;87253;-35
2022/08/23 12:49:40;;;;;;;;;;;22.20;67.70;;;;;;5023189;28;87410;-35
2022/08/23 12:52:08;;;;;;;;;;;22.20;68.00;;;;;;5022667;28;87414;-34
2022/08/23 12:54:40;;;;;;;;;;;22.20;68.20;;;;;;5024781;28;89636;-39
2022/08/23 12:57:10;;;;;;;;;;;22.20;69.20;;;;;;5022364;28;88209;-36
2022/08/23 12:59:54;;;;;;;;;;;22.20;69.80;;;;;;5022539;28;87260;-38
2022/08/23 13:02:24;;;;;;;;;;;22.20;69.80;;;;;;5022646;28;86999;-35
2022/08/23 13:04:50;;;;;;;;;;;22.20;69.90;;;;;;5022647;28;87485;-37
2022/08/23 13:07:19;;;;;;;;;;;22.20;69.90;;;;;;5021464;28;89069;-37
2022/08/23 13:09:45;;;;;;;;;;;22.30;70.00;;;;;;5025002;28;87062;-37
2022/08/23 13:12:11;;;;;;;;;;;22.30;70.00;;;;;;5025893;28;88919;-36
2022/08/23 13:14:40;;;;;;;;;;;22.30;69.40;;;;;;5028417;28;88513;-36
2022/08/23 13:17:13;;;;;;;;;;;22.20;69.20;;;;;;5025846;28;87453;-36
2022/08/23 13:19:39;;;;;;;;;;;22.30;67.60;;;;;;5025333;28;88138;-35
2022/08/23 13:22:12;;;;;;;;;;;22.30;68.10;;;;;;5025573;28;86980;-36
2022/08/23 13:24:40;;;;;;;;;;;22.30;68.30;;;;;;5026289;28;87306;-37
2022/08/23 13:27:14;;;;;;;;;;;22.30;68.20;;;;;;5025217;28;88193;-39
2022/08/23 13:29:48;;;;;;;;;;;22.30;68.20;;;;;;5025565;28;87003;-36
2022/08/23 13:32:28;;;;;;;;;;;22.30;67.90;;;;;;5025212;28;88011;-36
2022/08/23 13:34:55;;;;;;;;;;;22.30;68.20;;;;;;5024906;28;89980;-37
2022/08/23 13:37:30;;;;;;;;;;;22.30;68.60;;;;;;5028338;28;87065;-40
2022/08/23 13:40:04;;;;;;;;;;;22.20;68.90;;;;;;5025059;28;87764;-40
2022/08/23 13:42:30;;;;;;;;;;;22.30;69.50;;;;;;5025669;28;86962;-43
2022/08/23 13:44:56;;;;;;;;;;;22.40;69.40;;;;;;5025519;28;87657;-42
2022/08/23 13:47:23;;;;;;;;;;;22.40;70.00;;;;;;5024576;28;88128;-38
2022/08/23 13:49:49;;;;;;;;;;;22.40;69.80;;;;;;5025700;28;86442;-40
2022/08/23 13:52:15;;;;;;;;;;;22.40;69.60;;;;;;5025354;28;86983;-40
2022/08/23 13:54:40;;;;;;;;;;;22.40;69.70;;;;;;5025164;28;87072;-38
2022/08/23 13:57:14;;;;;;;;;;;22.40;70.00;;;;;;5024553;28;88043;-36
2022/08/23 13:59:45;;;;;;;;;;;22.50;70.00;;;;;;5027387;28;88425;-39
2022/08/23 14:02:12;;;;;;;;;;;22.50;69.80;;;;;;5025249;28;87072;-36
2022/08/23 14:04:39;;;;;;;;;;;22.50;69.80;;;;;;5024990;28;86921;-36
2022/08/23 14:07:05;;;;;;;;;;;22.50;69.60;;;;;;5024298;28;89446;-36
2022/08/23 14:09:32;;;;;;;;;;;22.40;70.00;;;;;;5025007;28;86990;-36
2022/08/23 14:12:01;;;;;;;;;;;22.40;69.60;;;;;;5024874;28;87970;-39
2022/08/23 14:14:30;;;;;;;;;;;22.40;70.00;;;;;;5024743;28;87226;-39
2022/08/23 14:16:55;;;;;;;;;;;22.40;69.80;;;;;;5024801;28;86979;-36
2022/08/23 14:19:21;;;;;;;;;;;22.40;70.30;;;;;;5024314;28;87956;-36
2022/08/23 14:21:46;;;;;;;;;;;22.40;71.30;;;;;;5025340;28;89605;-38
2022/08/23 14:24:12;;;;;;;;;;;22.50;71.90;;;;;;5024872;28;88267;-36
2022/08/23 14:26:37;;;;;;;;;;;22.40;72.60;;;;;;5024401;28;87251;-36
2022/08/23 14:29:03;;;;;;;;;;;22.30;73.30;;;;;;5024299;28;86884;-36
2022/08/23 14:31:29;;;;;;;;;;;22.30;73.40;;;;;;5024755;28;87372;-37